sensor_id;sensor_type;location;lat;lon;timestamp;P1;durP1;ratioP1;P2;durP2;ratioP2
74177;SDS011;62540;48.456;-4.456;2023-03-01T00:01:16;3.00;;;2.75;;
74177;SDS011;62540;48.456;-4.456;2023-03-01T00:03:43;2.25;;;2.00;;
74177;SDS011;62540;48.456;-4.456;2023-03-01T00:06:08;2.00;;;1.00;;
74177;SDS011;62540;48.456;-4.456;2023-03-01T00:08:34;2.00;;;1.25;;
74177;SDS011;62540;48.456;-4.456;2023-03-01T00:11:04;3.00;;;2.00;;
74177;SDS011;62540;48.456;-4.456;2023-03-01T00:13:36;1.25;;;1.25;;
74177;SDS011;62540;48.456;-4.456;2023-03-01T00:16:05;2.75;;;2.00;;
74177;SDS011;62540;48.456;-4.456;2023-03-01T00:18:32;3.25;;;3.25;;
74177;SDS011;62540;48.456;-4.456;2023-03-01T00:20:58;3.00;;;2.00;;
74177;SDS011;62540;48.456;-4.456;2023-03-01T00:23:24;0.75;;;0.75;;
74177;SDS011;62540;48.456;-4.456;2023-03-01T00:25:50;3.00;;;2.00;;
74177;SDS011;62540;48.456;-4.456;2023-03-01T00:28:16;3.00;;;3.00;;
74177;SDS011;62540;48.456;-4.456;2023-03-01T00:30:42;2.75;;;2.75;;
74177;SDS011;62540;48.456;-4.456;2023-03-01T00:33:07;3.50;;;3.00;;
74177;SDS011;62540;48.456;-4.456;2023-03-01T00:35:33;5.00;;;3.75;;
74177;SDS011;62540;48.456;-4.456;2023-03-01T00:37:59;3.75;;;3.50;;
74177;SDS011;62540;48.456;-4.456;2023-03-01T00:40:25;7.75;;;4.00;;
74177;SDS011;62540;48.456;-4.456;2023-03-01T00:42:54;6.00;;;4.50;;
74177;SDS011;62540;48.456;-4.456;2023-03-01T00:45:20;4.25;;;4.25;;
74177;SDS011;62540;48.456;-4.456;2023-03-01T00:47:45;2.50;;;2.00;;
74177;SDS011;62540;48.456;-4.456;2023-03-01T00:50:12;4.00;;;4.00;;
74177;SDS011;62540;48.456;-4.456;2023-03-01T00:52:38;4.00;;;3.50;;
74177;SDS011;62540;48.456;-4.456;2023-03-01T00:55:03;4.00;;;4.00;;
74177;SDS011;62540;48.456;-4.456;2023-03-01T00:57:30;6.50;;;5.00;;
74177;SDS011;62540;48.456;-4.456;2023-03-01T00:59:56;7.00;;;6.00;;
74177;SDS011;62540;48.456;-4.456;2023-03-01T01:02:21;6.00;;;5.00;;
74177;SDS011;62540;48.456;-4.456;2023-03-01T01:04:47;6.25;;;6.00;;
74177;SDS011;62540;48.456;-4.456;2023-03-01T01:07:13;7.75;;;7.00;;
74177;SDS011;62540;48.456;-4.456;2023-03-01T01:09:39;6.00;;;3.25;;
74177;SDS011;62540;48.456;-4.456;2023-03-01T01:12:05;5.75;;;3.00;;
74177;SDS011;62540;48.456;-4.456;2023-03-01T01:14:32;6.75;;;6.25;;
74177;SDS011;62540;48.456;-4.456;2023-03-01T01:16:57;9.00;;;8.00;;
74177;SDS011;62540;48.456;-4.456;2023-03-01T01:19:23;7.50;;;6.00;;
74177;SDS011;62540;48.456;-4.456;2023-03-01T01:21:50;7.00;;;7.00;;
74177;SDS011;62540;48.456;-4.456;2023-03-01T01:24:16;7.50;;;7.00;;
74177;SDS011;62540;48.456;-4.456;2023-03-01T01:26:42;11.75;;;7.25;;
74177;SDS011;62540;48.456;-4.456;2023-03-01T01:29:07;8.00;;;8.00;;
74177;SDS011;62540;48.456;-4.456;2023-03-01T01:31:34;3.25;;;3.25;;
74177;SDS011;62540;48.456;-4.456;2023-03-01T01:34:01;11.50;;;11.00;;
74177;SDS011;62540;48.456;-4.456;2023-03-01T01:36:28;11.75;;;11.75;;
74177;SDS011;62540;48.456;-4.456;2023-03-01T01:38:53;14.25;;;13.50;;
74177;SDS011;62540;48.456;-4.456;2023-03-01T01:41:19;16.25;;;16.25;;
74177;SDS011;62540;48.456;-4.456;2023-03-01T01:43:47;26.00;;;20.00;;
74177;SDS011;62540;48.456;-4.456;2023-03-01T01:48:56;24.50;;;22.00;;
74177;SDS011;62540;48.456;-4.456;2023-03-01T01:51:27;15.25;;;13.00;;
74177;SDS011;62540;48.456;-4.456;2023-03-01T01:54:03;24.75;;;21.25;;
74177;SDS011;62540;48.456;-4.456;2023-03-01T01:56:58;26.75;;;23.50;;
74177;SDS011;62540;48.456;-4.456;2023-03-01T01:59:27;30.00;;;26.00;;
74177;SDS011;62540;48.456;-4.456;2023-03-01T02:01:55;35.50;;;27.50;;
74177;SDS011;62540;48.456;-4.456;2023-03-01T02:04:21;31.25;;;27.50;;
74177;SDS011;62540;48.456;-4.456;2023-03-01T02:09:45;23.25;;;22.75;;
74177;SDS011;62540;48.456;-4.456;2023-03-01T02:12:13;32.00;;;25.75;;
74177;SDS011;62540;48.456;-4.456;2023-03-01T02:14:40;30.25;;;30.00;;
74177;SDS011;62540;48.456;-4.456;2023-03-01T02:17:05;32.00;;;30.00;;
74177;SDS011;62540;48.456;-4.456;2023-03-01T02:22:12;29.00;;;25.75;;
74177;SDS011;62540;48.456;-4.456;2023-03-01T02:24:51;37.00;;;30.50;;
74177;SDS011;62540;48.456;-4.456;2023-03-01T02:30:28;42.00;;;35.50;;
74177;SDS011;62540;48.456;-4.456;2023-03-01T02:32:55;32.00;;;28.00;;
74177;SDS011;62540;48.456;-4.456;2023-03-01T02:35:28;37.75;;;30.50;;
74177;SDS011;62540;48.456;-4.456;2023-03-01T02:37:57;35.00;;;32.50;;
74177;SDS011;62540;48.456;-4.456;2023-03-01T02:40:26;34.75;;;30.50;;
74177;SDS011;62540;48.456;-4.456;2023-03-01T02:42:54;30.75;;;27.50;;
74177;SDS011;62540;48.456;-4.456;2023-03-01T02:45:22;32.00;;;28.75;;
74177;SDS011;62540;48.456;-4.456;2023-03-01T02:47:49;33.00;;;28.75;;
74177;SDS011;62540;48.456;-4.456;2023-03-01T02:55:32;35.25;;;28.50;;
74177;SDS011;62540;48.456;-4.456;2023-03-01T02:57:58;34.75;;;30.50;;
74177;SDS011;62540;48.456;-4.456;2023-03-01T03:00:37;37.00;;;31.25;;
74177;SDS011;62540;48.456;-4.456;2023-03-01T03:03:09;34.00;;;30.50;;
74177;SDS011;62540;48.456;-4.456;2023-03-01T03:05:35;39.50;;;33.00;;
74177;SDS011;62540;48.456;-4.456;2023-03-01T03:08:01;38.00;;;31.50;;
74177;SDS011;62540;48.456;-4.456;2023-03-01T03:10:31;39.00;;;29.00;;
74177;SDS011;62540;48.456;-4.456;2023-03-01T03:13:03;34.25;;;30.00;;
74177;SDS011;62540;48.456;-4.456;2023-03-01T03:15:30;40.25;;;33.75;;
74177;SDS011;62540;48.456;-4.456;2023-03-01T03:17:57;38.75;;;34.25;;
74177;SDS011;62540;48.456;-4.456;2023-03-01T03:20:24;32.00;;;30.75;;
74177;SDS011;62540;48.456;-4.456;2023-03-01T03:22:52;33.00;;;30.50;;
74177;SDS011;62540;48.456;-4.456;2023-03-01T03:25:19;37.25;;;29.25;;
74177;SDS011;62540;48.456;-4.456;2023-03-01T03:27:47;40.75;;;33.75;;
74177;SDS011;62540;48.456;-4.456;2023-03-01T03:30:15;36.00;;;31.50;;
74177;SDS011;62540;48.456;-4.456;2023-03-01T03:32:43;41.00;;;36.75;;
74177;SDS011;62540;48.456;-4.456;2023-03-01T03:35:20;41.75;;;34.25;;
74177;SDS011;62540;48.456;-4.456;2023-03-01T03:37:49;43.00;;;37.50;;
74177;SDS011;62540;48.456;-4.456;2023-03-01T03:40:35;37.00;;;32.25;;
74177;SDS011;62540;48.456;-4.456;2023-03-01T03:43:03;33.25;;;30.00;;
74177;SDS011;62540;48.456;-4.456;2023-03-01T03:45:30;43.25;;;36.50;;
74177;SDS011;62540;48.456;-4.456;2023-03-01T03:47:58;50.25;;;41.75;;
74177;SDS011;62540;48.456;-4.456;2023-03-01T03:50:27;34.00;;;28.75;;
74177;SDS011;62540;48.456;-4.456;2023-03-01T03:52:53;39.50;;;37.00;;
74177;SDS011;62540;48.456;-4.456;2023-03-01T03:55:19;45.75;;;38.00;;
74177;SDS011;62540;48.456;-4.456;2023-03-01T03:57:45;37.75;;;33.50;;
74177;SDS011;62540;48.456;-4.456;2023-03-01T04:00:20;49.75;;;37.75;;
74177;SDS011;62540;48.456;-4.456;2023-03-01T04:02:46;51.00;;;38.75;;
74177;SDS011;62540;48.456;-4.456;2023-03-01T04:05:14;50.75;;;39.50;;
74177;SDS011;62540;48.456;-4.456;2023-03-01T04:07:41;39.25;;;36.50;;
74177;SDS011;62540;48.456;-4.456;2023-03-01T04:10:08;50.00;;;36.50;;
74177;SDS011;62540;48.456;-4.456;2023-03-01T04:12:36;45.75;;;39.00;;
74177;SDS011;62540;48.456;-4.456;2023-03-01T04:15:02;51.00;;;38.75;;
74177;SDS011;62540;48.456;-4.456;2023-03-01T04:17:41;45.75;;;41.00;;
74177;SDS011;62540;48.456;-4.456;2023-03-01T04:20:12;40.75;;;36.00;;
74177;SDS011;62540;48.456;-4.456;2023-03-01T04:22:42;32.75;;;32.00;;
74177;SDS011;62540;48.456;-4.456;2023-03-01T04:25:11;51.75;;;39.25;;
74177;SDS011;62540;48.456;-4.456;2023-03-01T04:27:39;55.25;;;40.25;;
74177;SDS011;62540;48.456;-4.456;2023-03-01T04:30:05;53.75;;;41.25;;
74177;SDS011;62540;48.456;-4.456;2023-03-01T04:32:32;48.50;;;39.00;;
74177;SDS011;62540;48.456;-4.456;2023-03-01T04:34:58;42.75;;;36.00;;
74177;SDS011;62540;48.456;-4.456;2023-03-01T04:37:24;47.00;;;39.50;;
74177;SDS011;62540;48.456;-4.456;2023-03-01T04:39:50;39.75;;;34.75;;
74177;SDS011;62540;48.456;-4.456;2023-03-01T04:42:15;49.00;;;38.50;;
74177;SDS011;62540;48.456;-4.456;2023-03-01T04:44:41;45.25;;;39.25;;
74177;SDS011;62540;48.456;-4.456;2023-03-01T04:47:07;52.75;;;39.25;;
74177;SDS011;62540;48.456;-4.456;2023-03-01T04:49:33;48.75;;;42.00;;
74177;SDS011;62540;48.456;-4.456;2023-03-01T04:51:58;40.50;;;36.00;;
74177;SDS011;62540;48.456;-4.456;2023-03-01T04:54:30;40.25;;;37.00;;
74177;SDS011;62540;48.456;-4.456;2023-03-01T04:56:57;44.75;;;37.50;;
74177;SDS011;62540;48.456;-4.456;2023-03-01T04:59:22;49.25;;;42.25;;
74177;SDS011;62540;48.456;-4.456;2023-03-01T05:01:49;44.50;;;38.50;;
74177;SDS011;62540;48.456;-4.456;2023-03-01T05:04:14;47.75;;;37.00;;
74177;SDS011;62540;48.456;-4.456;2023-03-01T05:06:40;45.25;;;37.00;;
74177;SDS011;62540;48.456;-4.456;2023-03-01T05:09:05;36.25;;;33.25;;
74177;SDS011;62540;48.456;-4.456;2023-03-01T05:11:31;47.50;;;38.00;;
74177;SDS011;62540;48.456;-4.456;2023-03-01T05:14:00;47.00;;;39.75;;
74177;SDS011;62540;48.456;-4.456;2023-03-01T05:16:27;48.25;;;39.75;;
74177;SDS011;62540;48.456;-4.456;2023-03-01T05:18:53;43.25;;;33.25;;
74177;SDS011;62540;48.456;-4.456;2023-03-01T05:21:20;40.50;;;35.00;;
74177;SDS011;62540;48.456;-4.456;2023-03-01T05:23:46;40.50;;;36.75;;
74177;SDS011;62540;48.456;-4.456;2023-03-01T05:26:13;48.25;;;36.25;;
74177;SDS011;62540;48.456;-4.456;2023-03-01T05:28:39;40.75;;;35.50;;
74177;SDS011;62540;48.456;-4.456;2023-03-01T05:31:05;39.50;;;33.75;;
74177;SDS011;62540;48.456;-4.456;2023-03-01T05:33:37;41.25;;;32.00;;
74177;SDS011;62540;48.456;-4.456;2023-03-01T05:36:03;50.75;;;39.25;;
74177;SDS011;62540;48.456;-4.456;2023-03-01T05:38:30;50.75;;;38.00;;
74177;SDS011;62540;48.456;-4.456;2023-03-01T05:40:55;40.00;;;33.75;;
74177;SDS011;62540;48.456;-4.456;2023-03-01T05:43:21;36.50;;;31.75;;
74177;SDS011;62540;48.456;-4.456;2023-03-01T05:45:46;41.00;;;37.00;;
74177;SDS011;62540;48.456;-4.456;2023-03-01T05:48:12;43.50;;;34.50;;
74177;SDS011;62540;48.456;-4.456;2023-03-01T05:50:42;35.75;;;31.75;;
74177;SDS011;62540;48.456;-4.456;2023-03-01T05:53:13;31.00;;;26.50;;
74177;SDS011;62540;48.456;-4.456;2023-03-01T05:55:41;37.50;;;35.25;;
74177;SDS011;62540;48.456;-4.456;2023-03-01T05:58:10;37.75;;;31.00;;
74177;SDS011;62540;48.456;-4.456;2023-03-01T06:00:39;38.75;;;31.75;;
74177;SDS011;62540;48.456;-4.456;2023-03-01T06:03:04;35.75;;;30.25;;
74177;SDS011;62540;48.456;-4.456;2023-03-01T06:05:30;42.50;;;34.25;;
74177;SDS011;62540;48.456;-4.456;2023-03-01T06:07:58;41.75;;;34.75;;
74177;SDS011;62540;48.456;-4.456;2023-03-01T06:10:25;43.25;;;39.25;;
74177;SDS011;62540;48.456;-4.456;2023-03-01T06:12:50;36.50;;;28.50;;
74177;SDS011;62540;48.456;-4.456;2023-03-01T06:15:15;33.00;;;28.75;;
74177;SDS011;62540;48.456;-4.456;2023-03-01T06:17:44;42.50;;;37.00;;
74177;SDS011;62540;48.456;-4.456;2023-03-01T06:20:15;41.00;;;37.00;;
74177;SDS011;62540;48.456;-4.456;2023-03-01T06:22:43;40.25;;;36.50;;
74177;SDS011;62540;48.456;-4.456;2023-03-01T06:25:14;45.00;;;38.75;;
74177;SDS011;62540;48.456;-4.456;2023-03-01T06:27:42;37.00;;;33.75;;
74177;SDS011;62540;48.456;-4.456;2023-03-01T06:30:08;39.50;;;34.50;;
74177;SDS011;62540;48.456;-4.456;2023-03-01T06:32:35;40.25;;;36.25;;
74177;SDS011;62540;48.456;-4.456;2023-03-01T06:35:02;40.75;;;37.50;;
74177;SDS011;62540;48.456;-4.456;2023-03-01T06:37:28;43.00;;;37.50;;
74177;SDS011;62540;48.456;-4.456;2023-03-01T06:39:53;32.00;;;29.25;;
74177;SDS011;62540;48.456;-4.456;2023-03-01T06:42:18;36.00;;;33.00;;
74177;SDS011;62540;48.456;-4.456;2023-03-01T06:44:44;38.00;;;35.75;;
74177;SDS011;62540;48.456;-4.456;2023-03-01T06:47:10;38.25;;;34.50;;
74177;SDS011;62540;48.456;-4.456;2023-03-01T06:49:36;35.50;;;24.50;;
74177;SDS011;62540;48.456;-4.456;2023-03-01T06:52:01;36.50;;;32.00;;
74177;SDS011;62540;48.456;-4.456;2023-03-01T06:54:27;33.25;;;25.75;;
74177;SDS011;62540;48.456;-4.456;2023-03-01T06:56:52;36.25;;;31.50;;
74177;SDS011;62540;48.456;-4.456;2023-03-01T06:59:18;34.25;;;28.75;;
74177;SDS011;62540;48.456;-4.456;2023-03-01T07:01:43;38.50;;;35.50;;
74177;SDS011;62540;48.456;-4.456;2023-03-01T07:04:09;40.00;;;36.25;;
74177;SDS011;62540;48.456;-4.456;2023-03-01T07:06:35;44.00;;;37.25;;
74177;SDS011;62540;48.456;-4.456;2023-03-01T07:09:01;39.50;;;33.00;;
74177;SDS011;62540;48.456;-4.456;2023-03-01T07:11:27;44.50;;;37.00;;
74177;SDS011;62540;48.456;-4.456;2023-03-01T07:13:52;43.25;;;36.25;;
74177;SDS011;62540;48.456;-4.456;2023-03-01T07:16:17;36.25;;;29.25;;
74177;SDS011;62540;48.456;-4.456;2023-03-01T07:18:43;37.00;;;34.00;;
74177;SDS011;62540;48.456;-4.456;2023-03-01T07:21:09;36.00;;;26.75;;
74177;SDS011;62540;48.456;-4.456;2023-03-01T07:23:38;36.25;;;32.00;;
74177;SDS011;62540;48.456;-4.456;2023-03-01T07:26:03;31.00;;;28.25;;
74177;SDS011;62540;48.456;-4.456;2023-03-01T07:28:29;33.00;;;29.75;;
74177;SDS011;62540;48.456;-4.456;2023-03-01T07:30:58;35.25;;;34.00;;
74177;SDS011;62540;48.456;-4.456;2023-03-01T07:33:26;30.50;;;28.50;;
74177;SDS011;62540;48.456;-4.456;2023-03-01T07:35:55;31.25;;;29.75;;
74177;SDS011;62540;48.456;-4.456;2023-03-01T07:38:24;37.50;;;30.75;;
74177;SDS011;62540;48.456;-4.456;2023-03-01T07:40:50;30.25;;;29.75;;
74177;SDS011;62540;48.456;-4.456;2023-03-01T07:43:15;37.25;;;32.50;;
74177;SDS011;62540;48.456;-4.456;2023-03-01T07:45:40;31.50;;;28.25;;
74177;SDS011;62540;48.456;-4.456;2023-03-01T07:48:06;31.50;;;29.00;;
74177;SDS011;62540;48.456;-4.456;2023-03-01T07:50:31;25.75;;;25.75;;
74177;SDS011;62540;48.456;-4.456;2023-03-01T07:52:56;33.00;;;27.25;;
74177;SDS011;62540;48.456;-4.456;2023-03-01T07:55:22;39.25;;;33.75;;
74177;SDS011;62540;48.456;-4.456;2023-03-01T07:57:47;37.50;;;33.25;;
74177;SDS011;62540;48.456;-4.456;2023-03-01T08:00:13;35.25;;;30.50;;
74177;SDS011;62540;48.456;-4.456;2023-03-01T08:02:38;41.00;;;34.50;;
74177;SDS011;62540;48.456;-4.456;2023-03-01T08:05:06;38.50;;;31.50;;
74177;SDS011;62540;48.456;-4.456;2023-03-01T08:07:32;31.25;;;29.75;;
74177;SDS011;62540;48.456;-4.456;2023-03-01T08:09:58;35.50;;;30.75;;
74177;SDS011;62540;48.456;-4.456;2023-03-01T08:12:23;28.75;;;24.75;;
74177;SDS011;62540;48.456;-4.456;2023-03-01T08:14:48;35.00;;;27.50;;
74177;SDS011;62540;48.456;-4.456;2023-03-01T08:17:14;34.50;;;30.50;;
74177;SDS011;62540;48.456;-4.456;2023-03-01T08:19:39;36.25;;;32.75;;
74177;SDS011;62540;48.456;-4.456;2023-03-01T08:22:05;34.25;;;31.50;;
74177;SDS011;62540;48.456;-4.456;2023-03-01T08:24:30;34.00;;;30.75;;
74177;SDS011;62540;48.456;-4.456;2023-03-01T08:26:56;27.50;;;25.00;;
74177;SDS011;62540;48.456;-4.456;2023-03-01T08:29:22;27.75;;;24.25;;
74177;SDS011;62540;48.456;-4.456;2023-03-01T08:31:49;31.75;;;26.25;;
74177;SDS011;62540;48.456;-4.456;2023-03-01T08:34:15;30.25;;;26.00;;
74177;SDS011;62540;48.456;-4.456;2023-03-01T08:36:43;35.25;;;28.50;;
74177;SDS011;62540;48.456;-4.456;2023-03-01T08:39:10;29.50;;;26.50;;
74177;SDS011;62540;48.456;-4.456;2023-03-01T08:41:40;31.25;;;25.00;;
74177;SDS011;62540;48.456;-4.456;2023-03-01T08:44:06;28.00;;;24.75;;
74177;SDS011;62540;48.456;-4.456;2023-03-01T08:46:33;24.25;;;22.25;;
74177;SDS011;62540;48.456;-4.456;2023-03-01T08:49:07;22.75;;;21.25;;
74177;SDS011;62540;48.456;-4.456;2023-03-01T08:51:35;31.75;;;26.25;;
74177;SDS011;62540;48.456;-4.456;2023-03-01T08:54:04;30.25;;;25.25;;
74177;SDS011;62540;48.456;-4.456;2023-03-01T08:56:40;24.25;;;22.75;;
74177;SDS011;62540;48.456;-4.456;2023-03-01T08:59:06;27.25;;;24.50;;
74177;SDS011;62540;48.456;-4.456;2023-03-01T09:01:32;27.50;;;24.25;;
74177;SDS011;62540;48.456;-4.456;2023-03-01T09:03:58;30.00;;;24.50;;
74177;SDS011;62540;48.456;-4.456;2023-03-01T09:06:24;25.00;;;22.75;;
74177;SDS011;62540;48.456;-4.456;2023-03-01T09:08:49;27.00;;;23.75;;
74177;SDS011;62540;48.456;-4.456;2023-03-01T09:11:16;34.00;;;28.75;;
74177;SDS011;62540;48.456;-4.456;2023-03-01T09:13:44;24.75;;;21.00;;
74177;SDS011;62540;48.456;-4.456;2023-03-01T09:16:11;32.75;;;24.50;;
74177;SDS011;62540;48.456;-4.456;2023-03-01T09:18:38;22.00;;;21.75;;
74177;SDS011;62540;48.456;-4.456;2023-03-01T09:21:06;31.25;;;25.50;;
74177;SDS011;62540;48.456;-4.456;2023-03-01T09:23:33;28.50;;;27.25;;
74177;SDS011;62540;48.456;-4.456;2023-03-01T09:26:01;28.50;;;24.75;;
74177;SDS011;62540;48.456;-4.456;2023-03-01T09:28:27;24.00;;;23.50;;
74177;SDS011;62540;48.456;-4.456;2023-03-01T09:30:53;26.00;;;24.75;;
74177;SDS011;62540;48.456;-4.456;2023-03-01T09:33:18;21.00;;;20.25;;
74177;SDS011;62540;48.456;-4.456;2023-03-01T09:35:43;21.00;;;20.00;;
74177;SDS011;62540;48.456;-4.456;2023-03-01T09:38:12;31.00;;;22.25;;
74177;SDS011;62540;48.456;-4.456;2023-03-01T09:40:41;25.75;;;23.75;;
74177;SDS011;62540;48.456;-4.456;2023-03-01T09:46:09;27.50;;;22.75;;
74177;SDS011;62540;48.456;-4.456;2023-03-01T09:48:41;29.75;;;25.00;;
74177;SDS011;62540;48.456;-4.456;2023-03-01T09:51:12;27.25;;;23.00;;
74177;SDS011;62540;48.456;-4.456;2023-03-01T09:53:44;30.25;;;25.00;;
74177;SDS011;62540;48.456;-4.456;2023-03-01T09:58:48;30.00;;;26.00;;
74177;SDS011;62540;48.456;-4.456;2023-03-01T10:09:37;32.00;;;26.50;;
74177;SDS011;62540;48.456;-4.456;2023-03-01T10:12:08;30.25;;;27.75;;
74177;SDS011;62540;48.456;-4.456;2023-03-01T10:14:37;29.75;;;28.25;;
74177;SDS011;62540;48.456;-4.456;2023-03-01T10:17:54;29.25;;;25.50;;
74177;SDS011;62540;48.456;-4.456;2023-03-01T10:19:53;27.50;;;22.75;;
74177;SDS011;62540;48.456;-4.456;2023-03-01T10:22:28;27.25;;;22.75;;
74177;SDS011;62540;48.456;-4.456;2023-03-01T10:24:54;29.50;;;25.75;;
74177;SDS011;62540;48.456;-4.456;2023-03-01T10:27:29;31.25;;;26.25;;
74177;SDS011;62540;48.456;-4.456;2023-03-01T10:32:42;34.00;;;28.50;;
74177;SDS011;62540;48.456;-4.456;2023-03-01T10:35:42;33.25;;;25.50;;
74177;SDS011;62540;48.456;-4.456;2023-03-01T10:40:31;31.25;;;25.25;;
74177;SDS011;62540;48.456;-4.456;2023-03-01T10:42:58;30.00;;;26.50;;
74177;SDS011;62540;48.456;-4.456;2023-03-01T10:50:44;40.25;;;34.50;;
74177;SDS011;62540;48.456;-4.456;2023-03-01T10:53:31;34.25;;;31.25;;
74177;SDS011;62540;48.456;-4.456;2023-03-01T10:56:06;34.25;;;27.50;;
74177;SDS011;62540;48.456;-4.456;2023-03-01T10:58:33;33.00;;;30.00;;
74177;SDS011;62540;48.456;-4.456;2023-03-01T11:01:02;37.25;;;30.75;;
74177;SDS011;62540;48.456;-4.456;2023-03-01T11:04:31;34.50;;;31.75;;
74177;SDS011;62540;48.456;-4.456;2023-03-01T11:06:40;34.25;;;29.00;;
74177;SDS011;62540;48.456;-4.456;2023-03-01T11:09:19;40.00;;;31.25;;
74177;SDS011;62540;48.456;-4.456;2023-03-01T11:11:46;38.50;;;30.50;;
74177;SDS011;62540;48.456;-4.456;2023-03-01T11:14:26;41.00;;;33.25;;
74177;SDS011;62540;48.456;-4.456;2023-03-01T11:16:58;40.75;;;33.25;;
74177;SDS011;62540;48.456;-4.456;2023-03-01T11:19:26;41.75;;;34.50;;
74177;SDS011;62540;48.456;-4.456;2023-03-01T11:21:54;37.00;;;30.75;;
74177;SDS011;62540;48.456;-4.456;2023-03-01T11:24:26;41.50;;;36.50;;
74177;SDS011;62540;48.456;-4.456;2023-03-01T11:26:56;39.00;;;33.75;;
74177;SDS011;62540;48.456;-4.456;2023-03-01T11:29:28;43.75;;;35.00;;
74177;SDS011;62540;48.456;-4.456;2023-03-01T11:32:01;41.50;;;34.00;;
74177;SDS011;62540;48.456;-4.456;2023-03-01T11:34:40;47.50;;;37.00;;
74177;SDS011;62540;48.456;-4.456;2023-03-01T11:40:03;41.25;;;36.00;;
74177;SDS011;62540;48.456;-4.456;2023-03-01T11:45:02;50.00;;;38.00;;
74177;SDS011;62540;48.456;-4.456;2023-03-01T11:47:46;41.25;;;34.75;;
74177;SDS011;62540;48.456;-4.456;2023-03-01T11:50:30;51.25;;;39.50;;
74177;SDS011;62540;48.456;-4.456;2023-03-01T11:55:56;51.25;;;40.75;;
74177;SDS011;62540;48.456;-4.456;2023-03-01T12:03:34;39.50;;;36.75;;
74177;SDS011;62540;48.456;-4.456;2023-03-01T12:14:12;51.25;;;36.75;;
74177;SDS011;62540;48.456;-4.456;2023-03-01T12:19:37;47.50;;;39.00;;
74177;SDS011;62540;48.456;-4.456;2023-03-01T12:22:30;46.75;;;38.25;;
74177;SDS011;62540;48.456;-4.456;2023-03-01T12:31:37;47.75;;;37.75;;
74177;SDS011;62540;48.456;-4.456;2023-03-01T12:49:49;43.50;;;36.25;;
74177;SDS011;62540;48.456;-4.456;2023-03-01T12:52:33;40.00;;;33.75;;
74177;SDS011;62540;48.456;-4.456;2023-03-01T12:55:07;44.00;;;37.75;;
74177;SDS011;62540;48.456;-4.456;2023-03-01T12:58:01;42.50;;;36.50;;
74177;SDS011;62540;48.456;-4.456;2023-03-01T13:00:39;44.00;;;37.25;;
74177;SDS011;62540;48.456;-4.456;2023-03-01T13:05:57;61.50;;;47.75;;
74177;SDS011;62540;48.456;-4.456;2023-03-01T13:09:00;66.50;;;52.00;;
74177;SDS011;62540;48.456;-4.456;2023-03-01T13:11:33;59.25;;;47.25;;
74177;SDS011;62540;48.456;-4.456;2023-03-01T13:14:43;56.25;;;44.75;;
74177;SDS011;62540;48.456;-4.456;2023-03-01T13:16:48;42.75;;;37.25;;
74177;SDS011;62540;48.456;-4.456;2023-03-01T13:19:19;48.75;;;38.50;;
74177;SDS011;62540;48.456;-4.456;2023-03-01T13:21:47;56.50;;;46.00;;
74177;SDS011;62540;48.456;-4.456;2023-03-01T13:24:35;51.50;;;41.25;;
74177;SDS011;62540;48.456;-4.456;2023-03-01T13:32:24;40.25;;;34.50;;
74177;SDS011;62540;48.456;-4.456;2023-03-01T13:35:03;45.50;;;36.75;;
74177;SDS011;62540;48.456;-4.456;2023-03-01T13:37:41;43.00;;;35.75;;
74177;SDS011;62540;48.456;-4.456;2023-03-01T13:40:56;50.50;;;40.50;;
74177;SDS011;62540;48.456;-4.456;2023-03-01T13:42:53;44.00;;;34.75;;
74177;SDS011;62540;48.456;-4.456;2023-03-01T13:47:56;47.25;;;36.00;;
74177;SDS011;62540;48.456;-4.456;2023-03-01T13:50:25;48.50;;;39.00;;
74177;SDS011;62540;48.456;-4.456;2023-03-01T13:53:00;45.00;;;37.00;;
74177;SDS011;62540;48.456;-4.456;2023-03-01T13:55:36;44.25;;;35.50;;
74177;SDS011;62540;48.456;-4.456;2023-03-01T13:58:19;48.75;;;38.75;;
74177;SDS011;62540;48.456;-4.456;2023-03-01T14:00:54;51.00;;;39.50;;
74177;SDS011;62540;48.456;-4.456;2023-03-01T14:03:24;49.50;;;39.75;;
74177;SDS011;62540;48.456;-4.456;2023-03-01T14:06:04;45.75;;;36.75;;
74177;SDS011;62540;48.456;-4.456;2023-03-01T14:08:42;45.75;;;37.00;;
74177;SDS011;62540;48.456;-4.456;2023-03-01T14:19:21;52.25;;;39.50;;
74177;SDS011;62540;48.456;-4.456;2023-03-01T14:24:50;46.25;;;37.00;;
74177;SDS011;62540;48.456;-4.456;2023-03-01T14:27:19;47.00;;;38.00;;
74177;SDS011;62540;48.456;-4.456;2023-03-01T14:29:56;49.00;;;40.00;;
74177;SDS011;62540;48.456;-4.456;2023-03-01T14:32:25;51.75;;;36.25;;
74177;SDS011;62540;48.456;-4.456;2023-03-01T14:34:55;50.25;;;40.50;;
74177;SDS011;62540;48.456;-4.456;2023-03-01T14:37:25;50.25;;;41.50;;
74177;SDS011;62540;48.456;-4.456;2023-03-01T14:39:57;46.25;;;39.00;;
74177;SDS011;62540;48.456;-4.456;2023-03-01T14:42:25;52.00;;;39.75;;
74177;SDS011;62540;48.456;-4.456;2023-03-01T14:44:55;39.00;;;36.00;;
74177;SDS011;62540;48.456;-4.456;2023-03-01T14:47:27;42.00;;;35.25;;
74177;SDS011;62540;48.456;-4.456;2023-03-01T14:49:59;51.00;;;38.75;;
74177;SDS011;62540;48.456;-4.456;2023-03-01T14:52:31;47.50;;;37.50;;
74177;SDS011;62540;48.456;-4.456;2023-03-01T14:55:20;51.75;;;37.25;;
74177;SDS011;62540;48.456;-4.456;2023-03-01T14:57:50;49.75;;;37.00;;
74177;SDS011;62540;48.456;-4.456;2023-03-01T15:00:20;44.00;;;36.25;;
74177;SDS011;62540;48.456;-4.456;2023-03-01T15:02:50;38.00;;;33.75;;
74177;SDS011;62540;48.456;-4.456;2023-03-01T15:05:18;48.25;;;37.00;;
74177;SDS011;62540;48.456;-4.456;2023-03-01T15:07:56;44.25;;;36.25;;
74177;SDS011;62540;48.456;-4.456;2023-03-01T15:10:28;48.00;;;37.00;;
74177;SDS011;62540;48.456;-4.456;2023-03-01T15:13:14;46.25;;;35.75;;
74177;SDS011;62540;48.456;-4.456;2023-03-01T15:15:46;40.25;;;32.25;;
74177;SDS011;62540;48.456;-4.456;2023-03-01T15:18:17;38.25;;;33.50;;
74177;SDS011;62540;48.456;-4.456;2023-03-01T15:20:49;44.50;;;36.50;;
74177;SDS011;62540;48.456;-4.456;2023-03-01T15:25:54;37.50;;;32.25;;
74177;SDS011;62540;48.456;-4.456;2023-03-01T15:28:27;39.00;;;33.50;;
74177;SDS011;62540;48.456;-4.456;2023-03-01T15:30:56;39.75;;;34.50;;
74177;SDS011;62540;48.456;-4.456;2023-03-01T15:35:52;43.50;;;35.25;;
74177;SDS011;62540;48.456;-4.456;2023-03-01T15:38:29;46.50;;;37.00;;
74177;SDS011;62540;48.456;-4.456;2023-03-01T15:41:03;46.25;;;35.75;;
74177;SDS011;62540;48.456;-4.456;2023-03-01T15:43:41;39.75;;;34.00;;
74177;SDS011;62540;48.456;-4.456;2023-03-01T15:46:17;43.00;;;35.50;;
74177;SDS011;62540;48.456;-4.456;2023-03-01T15:48:52;40.50;;;34.75;;
74177;SDS011;62540;48.456;-4.456;2023-03-01T15:51:22;48.50;;;38.25;;
74177;SDS011;62540;48.456;-4.456;2023-03-01T15:53:54;42.50;;;35.50;;
74177;SDS011;62540;48.456;-4.456;2023-03-01T15:56:19;40.75;;;34.50;;
74177;SDS011;62540;48.456;-4.456;2023-03-01T15:58:45;39.00;;;34.75;;
74177;SDS011;62540;48.456;-4.456;2023-03-01T16:01:14;37.75;;;35.25;;
74177;SDS011;62540;48.456;-4.456;2023-03-01T16:03:41;36.00;;;28.25;;
74177;SDS011;62540;48.456;-4.456;2023-03-01T16:06:08;37.00;;;33.50;;
74177;SDS011;62540;48.456;-4.456;2023-03-01T16:08:35;25.25;;;24.50;;
74177;SDS011;62540;48.456;-4.456;2023-03-01T16:11:00;42.75;;;34.25;;
74177;SDS011;62540;48.456;-4.456;2023-03-01T16:13:29;32.00;;;28.75;;
74177;SDS011;62540;48.456;-4.456;2023-03-01T16:15:56;41.25;;;36.25;;
74177;SDS011;62540;48.456;-4.456;2023-03-01T16:18:21;40.75;;;33.00;;